sensor_id;sensor_type;location;lat;lon;timestamp;pressure;altitude;pressure_sealevel;temperature;humidity
50268;BME280;36153;50.960;6.220;2023-03-18T00:03:03;99872.59;;;17.10;46.33
50268;BME280;36153;50.960;6.220;2023-03-18T00:06:14;99885.44;;;17.22;45.78
50268;BME280;36153;50.960;6.220;2023-03-18T00:09:16;99878.44;;;17.21;45.95
50268;BME280;36153;50.960;6.220;2023-03-18T00:12:18;99865.38;;;17.18;46.15
50268;BME280;36153;50.960;6.220;2023-03-18T00:15:19;99860.22;;;17.15;45.99
50268;BME280;36153;50.960;6.220;2023-03-18T00:18:21;99861.19;;;17.11;46.35
50268;BME280;36153;50.960;6.220;2023-03-18T00:21:23;99875.91;;;17.18;46.04
50268;BME280;36153;50.960;6.220;2023-03-18T00:24:24;99861.94;;;17.16;46.09
50268;BME280;36153;50.960;6.220;2023-03-18T00:27:28;99863.59;;;17.20;46.07
50268;BME280;36153;50.960;6.220;2023-03-18T00:30:30;99860.03;;;17.21;46.03
50268;BME280;36153;50.960;6.220;2023-03-18T00:33:31;99869.75;;;17.19;45.88
50268;BME280;36153;50.960;6.220;2023-03-18T00:36:33;99883.53;;;17.29;45.61
50268;BME280;36153;50.960;6.220;2023-03-18T00:39:34;99885.34;;;17.27;45.56
50268;BME280;36153;50.960;6.220;2023-03-18T00:42:37;99895.75;;;17.32;45.79
50268;BME280;36153;50.960;6.220;2023-03-18T00:45:39;99901.00;;;17.32;46.11
50268;BME280;36153;50.960;6.220;2023-03-18T00:48:40;99908.06;;;17.30;46.35
50268;BME280;36153;50.960;6.220;2023-03-18T00:51:41;99888.97;;;17.23;46.60
50268;BME280;36153;50.960;6.220;2023-03-18T00:54:42;99887.97;;;17.27;46.85
50268;BME280;36153;50.960;6.220;2023-03-18T00:57:42;99879.16;;;17.28;47.32
50268;BME280;36153;50.960;6.220;2023-03-18T01:00:42;99883.06;;;17.13;47.69
50268;BME280;36153;50.960;6.220;2023-03-18T01:03:43;99876.38;;;17.00;48.45
50268;BME280;36153;50.960;6.220;2023-03-18T01:06:44;99877.31;;;16.97;48.81
50268;BME280;36153;50.960;6.220;2023-03-18T01:09:44;99865.94;;;16.97;48.70
50268;BME280;36153;50.960;6.220;2023-03-18T01:12:45;99872.22;;;16.89;48.89
50268;BME280;36153;50.960;6.220;2023-03-18T01:15:46;99867.03;;;16.86;48.99
50268;BME280;36153;50.960;6.220;2023-03-18T01:18:47;99852.69;;;16.64;49.57
50268;BME280;36153;50.960;6.220;2023-03-18T01:21:47;99861.47;;;16.63;49.57
50268;BME280;36153;50.960;6.220;2023-03-18T01:24:48;99864.00;;;16.66;49.06
50268;BME280;36153;50.960;6.220;2023-03-18T01:27:48;99861.78;;;16.49;49.21
50268;BME280;36153;50.960;6.220;2023-03-18T01:30:49;99870.16;;;16.27;49.22
50268;BME280;36153;50.960;6.220;2023-03-18T01:33:50;99874.88;;;16.11;49.78
50268;BME280;36153;50.960;6.220;2023-03-18T01:36:50;99867.44;;;15.91;50.23
50268;BME280;36153;50.960;6.220;2023-03-18T01:39:51;99867.94;;;15.63;50.76
50268;BME280;36153;50.960;6.220;2023-03-18T01:43:14;99867.50;;;15.41;52.13
50268;BME280;36153;50.960;6.220;2023-03-18T01:46:41;99866.19;;;15.15;52.68
50268;BME280;36153;50.960;6.220;2023-03-18T01:49:47;99864.84;;;14.93;53.16
50268;BME280;36153;50.960;6.220;2023-03-18T01:52:52;99876.91;;;15.01;53.13
50268;BME280;36153;50.960;6.220;2023-03-18T01:55:54;99876.03;;;15.02;53.04
50268;BME280;36153;50.960;6.220;2023-03-18T01:58:58;99867.50;;;14.91;53.06
50268;BME280;36153;50.960;6.220;2023-03-18T02:02:08;99876.47;;;14.76;53.38
50268;BME280;36153;50.960;6.220;2023-03-18T02:05:11;99866.13;;;14.65;53.45
50268;BME280;36153;50.960;6.220;2023-03-18T02:08:16;99870.84;;;14.40;53.73
50268;BME280;36153;50.960;6.220;2023-03-18T02:11:20;99874.50;;;14.30;54.01
50268;BME280;36153;50.960;6.220;2023-03-18T02:14:24;99870.34;;;14.13;54.86
50268;BME280;36153;50.960;6.220;2023-03-18T02:17:29;99863.47;;;14.06;54.99
50268;BME280;36153;50.960;6.220;2023-03-18T02:30:34;99880.00;;;14.11;56.43
50268;BME280;36153;50.960;6.220;2023-03-18T02:33:38;99879.16;;;14.08;56.52
50268;BME280;36153;50.960;6.220;2023-03-18T02:36:40;99885.06;;;14.21;56.56
50268;BME280;36153;50.960;6.220;2023-03-18T02:39:40;99880.75;;;14.18;56.06
50268;BME280;36153;50.960;6.220;2023-03-18T02:42:41;99882.56;;;14.14;56.21
50268;BME280;36153;50.960;6.220;2023-03-18T02:49:21;99892.03;;;14.23;56.40
50268;BME280;36153;50.960;6.220;2023-03-18T02:52:23;99891.94;;;14.31;56.53
50268;BME280;36153;50.960;6.220;2023-03-18T02:55:23;99891.09;;;14.29;56.76
50268;BME280;36153;50.960;6.220;2023-03-18T02:58:24;99882.44;;;14.22;57.11
50268;BME280;36153;50.960;6.220;2023-03-18T03:01:25;99885.78;;;14.32;56.89
50268;BME280;36153;50.960;6.220;2023-03-18T03:04:26;99890.84;;;14.47;56.42
50268;BME280;36153;50.960;6.220;2023-03-18T03:07:27;99884.69;;;14.48;56.43
50268;BME280;36153;50.960;6.220;2023-03-18T03:10:28;99884.81;;;14.42;57.17
50268;BME280;36153;50.960;6.220;2023-03-18T03:13:29;99893.53;;;14.41;57.34
50268;BME280;36153;50.960;6.220;2023-03-18T03:16:29;99903.00;;;14.50;57.30
50268;BME280;36153;50.960;6.220;2023-03-18T03:19:30;99900.34;;;14.51;57.22
50268;BME280;36153;50.960;6.220;2023-03-18T03:22:32;99902.19;;;14.46;56.84
50268;BME280;36153;50.960;6.220;2023-03-18T03:25:33;99900.50;;;14.44;56.77
50268;BME280;36153;50.960;6.220;2023-03-18T03:28:34;99905.66;;;14.47;56.85
50268;BME280;36153;50.960;6.220;2023-03-18T03:31:35;99907.31;;;14.54;56.56
50268;BME280;36153;50.960;6.220;2023-03-18T03:34:36;99910.63;;;14.70;56.91
50268;BME280;36153;50.960;6.220;2023-03-18T03:37:36;99917.38;;;14.83;56.24
50268;BME280;36153;50.960;6.220;2023-03-18T03:40:37;99925.97;;;14.93;56.13
50268;BME280;36153;50.960;6.220;2023-03-18T03:43:39;99923.13;;;15.09;56.03
50268;BME280;36153;50.960;6.220;2023-03-18T03:46:39;99926.47;;;15.17;55.12
50268;BME280;36153;50.960;6.220;2023-03-18T03:49:40;99935.16;;;15.21;54.34
50268;BME280;36153;50.960;6.220;2023-03-18T03:52:40;99928.16;;;15.23;55.20
50268;BME280;36153;50.960;6.220;2023-03-18T03:55:41;99930.75;;;15.24;55.42
50268;BME280;36153;50.960;6.220;2023-03-18T03:58:42;99925.41;;;15.29;55.76
50268;BME280;36153;50.960;6.220;2023-03-18T04:01:42;99924.44;;;15.34;54.85
50268;BME280;36153;50.960;6.220;2023-03-18T04:04:43;99940.06;;;15.39;54.95
50268;BME280;36153;50.960;6.220;2023-03-18T04:07:45;99941.56;;;15.54;54.61
50268;BME280;36153;50.960;6.220;2023-03-18T04:10:46;99946.03;;;15.50;54.58
50268;BME280;36153;50.960;6.220;2023-03-18T04:13:47;99945.09;;;15.51;54.24
50268;BME280;36153;50.960;6.220;2023-03-18T04:16:47;99949.19;;;15.68;54.43
50268;BME280;36153;50.960;6.220;2023-03-18T04:19:48;99947.41;;;15.70;54.24
50268;BME280;36153;50.960;6.220;2023-03-18T04:22:48;99958.56;;;15.83;53.83
50268;BME280;36153;50.960;6.220;2023-03-18T04:25:49;99956.97;;;15.74;55.13
50268;BME280;36153;50.960;6.220;2023-03-18T04:28:49;99958.84;;;15.67;54.75
50268;BME280;36153;50.960;6.220;2023-03-18T04:31:51;99969.25;;;15.70;54.66
50268;BME280;36153;50.960;6.220;2023-03-18T04:34:54;99975.25;;;15.80;54.40
50268;BME280;36153;50.960;6.220;2023-03-18T04:37:54;99973.47;;;15.82;54.05
50268;BME280;36153;50.960;6.220;2023-03-18T04:40:55;99975.13;;;15.86;54.46
50268;BME280;36153;50.960;6.220;2023-03-18T04:43:55;99978.59;;;15.89;54.76
50268;BME280;36153;50.960;6.220;2023-03-18T04:46:56;99973.41;;;15.85;54.32
50268;BME280;36153;50.960;6.220;2023-03-18T04:49:57;99983.16;;;15.77;54.72
50268;BME280;36153;50.960;6.220;2023-03-18T04:52:57;99983.53;;;15.54;55.70
50268;BME280;36153;50.960;6.220;2023-03-18T04:55:59;99984.53;;;15.47;56.01
50268;BME280;36153;50.960;6.220;2023-03-18T04:59:02;99979.31;;;15.45;55.76
50268;BME280;36153;50.960;6.220;2023-03-18T05:02:02;99981.28;;;15.31;55.67
50268;BME280;36153;50.960;6.220;2023-03-18T05:05:04;99981.53;;;15.15;55.63
50268;BME280;36153;50.960;6.220;2023-03-18T05:08:05;99974.84;;;14.99;56.08
50268;BME280;36153;50.960;6.220;2023-03-18T05:11:06;99983.75;;;14.85;56.40
50268;BME280;36153;50.960;6.220;2023-03-18T05:14:06;99988.41;;;14.65;57.25
50268;BME280;36153;50.960;6.220;2023-03-18T05:17:07;99987.56;;;14.60;56.95
50268;BME280;36153;50.960;6.220;2023-03-18T05:20:14;99988.63;;;14.46;57.34
50268;BME280;36153;50.960;6.220;2023-03-18T05:23:14;99989.53;;;14.42;57.31
50268;BME280;36153;50.960;6.220;2023-03-18T05:26:17;99991.38;;;14.34;57.43
50268;BME280;36153;50.960;6.220;2023-03-18T05:29:17;99993.19;;;14.29;57.43
50268;BME280;36153;50.960;6.220;2023-03-18T05:32:18;99988.91;;;14.22;57.73
50268;BME280;36153;50.960;6.220;2023-03-18T05:35:19;99994.22;;;14.14;57.83
50268;BME280;36153;50.960;6.220;2023-03-18T05:38:19;99989.84;;;14.16;57.83
50268;BME280;36153;50.960;6.220;2023-03-18T05:41:20;99991.72;;;14.06;58.15
50268;BME280;36153;50.960;6.220;2023-03-18T05:44:20;99997.78;;;14.07;57.71
50268;BME280;36153;50.960;6.220;2023-03-18T05:47:21;99988.28;;;13.99;58.13
50268;BME280;36153;50.960;6.220;2023-03-18T05:53:29;99992.66;;;13.99;58.06
50268;BME280;36153;50.960;6.220;2023-03-18T05:56:30;99989.25;;;13.92;58.18
50268;BME280;36153;50.960;6.220;2023-03-18T05:59:30;99985.75;;;13.90;57.96
50268;BME280;36153;50.960;6.220;2023-03-18T06:02:30;99995.38;;;13.90;57.66
50268;BME280;36153;50.960;6.220;2023-03-18T06:05:32;99986.69;;;13.88;57.66
50268;BME280;36153;50.960;6.220;2023-03-18T06:08:32;99998.00;;;13.88;58.09
50268;BME280;36153;50.960;6.220;2023-03-18T06:11:33;99997.91;;;13.94;57.69
50268;BME280;36153;50.960;6.220;2023-03-18T06:14:33;99999.66;;;13.95;57.82
50268;BME280;36153;50.960;6.220;2023-03-18T06:17:35;99996.97;;;14.03;57.71
50268;BME280;36153;50.960;6.220;2023-03-18T06:20:35;100000.47;;;14.02;57.78
50268;BME280;36153;50.960;6.220;2023-03-18T06:23:36;99998.59;;;14.15;57.71
50268;BME280;36153;50.960;6.220;2023-03-18T06:26:43;100003.63;;;14.32;57.60
50268;BME280;36153;50.960;6.220;2023-03-18T06:29:43;100012.44;;;14.25;57.58
50268;BME280;36153;50.960;6.220;2023-03-18T06:32:47;100013.16;;;14.36;57.43
50268;BME280;36153;50.960;6.220;2023-03-18T06:35:48;100016.63;;;14.40;57.69
50268;BME280;36153;50.960;6.220;2023-03-18T06:38:48;100017.38;;;14.49;57.62
50268;BME280;36153;50.960;6.220;2023-03-18T06:41:49;100016.34;;;14.66;57.21
50268;BME280;36153;50.960;6.220;2023-03-18T06:44:50;100026.53;;;14.89;56.90
50268;BME280;36153;50.960;6.220;2023-03-18T06:47:50;100023.69;;;15.05;56.70
50268;BME280;36153;50.960;6.220;2023-03-18T06:50:51;100035.50;;;15.30;56.09
50268;BME280;36153;50.960;6.220;2023-03-18T06:53:51;100025.72;;;15.42;55.83
50268;BME280;36153;50.960;6.220;2023-03-18T06:56:52;100026.47;;;15.48;55.95
50268;BME280;36153;50.960;6.220;2023-03-18T06:59:52;100033.28;;;15.59;55.83
50268;BME280;36153;50.960;6.220;2023-03-18T07:02:53;100021.97;;;15.57;55.46
50268;BME280;36153;50.960;6.220;2023-03-18T07:05:53;100019.16;;;15.69;55.09
50268;BME280;36153;50.960;6.220;2023-03-18T07:08:55;100025.06;;;15.82;55.10
50268;BME280;36153;50.960;6.220;2023-03-18T07:11:56;100019.72;;;15.88;54.98
50268;BME280;36153;50.960;6.220;2023-03-18T07:14:57;100023.81;;;16.03;54.80
50268;BME280;36153;50.960;6.220;2023-03-18T07:17:58;100021.75;;;16.20;54.24
50268;BME280;36153;50.960;6.220;2023-03-18T07:20:59;100024.03;;;16.37;54.17
50268;BME280;36153;50.960;6.220;2023-03-18T07:24:00;100023.09;;;16.40;53.92
50268;BME280;36153;50.960;6.220;2023-03-18T07:27:03;100027.78;;;16.68;53.44
50268;BME280;36153;50.960;6.220;2023-03-18T07:30:04;100029.34;;;16.77;53.26
50268;BME280;36153;50.960;6.220;2023-03-18T07:33:04;100033.97;;;17.06;52.77
50268;BME280;36153;50.960;6.220;2023-03-18T07:36:06;100043.28;;;17.21;52.30
50268;BME280;36153;50.960;6.220;2023-03-18T07:39:07;100045.59;;;17.35;52.19
50268;BME280;36153;50.960;6.220;2023-03-18T07:42:10;100048.84;;;17.46;51.84
50268;BME280;36153;50.960;6.220;2023-03-18T07:45:10;100046.66;;;17.64;51.54
50268;BME280;36153;50.960;6.220;2023-03-18T07:48:11;100047.41;;;17.69;51.23
50268;BME280;36153;50.960;6.220;2023-03-18T07:51:11;100063.13;;;17.72;50.96
50268;BME280;36153;50.960;6.220;2023-03-18T07:54:12;100058.00;;;18.02;50.43
50268;BME280;36153;50.960;6.220;2023-03-18T07:57:13;100065.81;;;18.05;50.15
50268;BME280;36153;50.960;6.220;2023-03-18T08:00:13;100061.16;;;18.16;49.77
50268;BME280;36153;50.960;6.220;2023-03-18T08:03:14;100066.25;;;18.22;49.68
50268;BME280;36153;50.960;6.220;2023-03-18T08:06:14;100074.94;;;18.24;49.43
50268;BME280;36153;50.960;6.220;2023-03-18T08:09:15;100076.41;;;18.36;49.13
50268;BME280;36153;50.960;6.220;2023-03-18T08:12:16;100085.59;;;18.21;49.55
50268;BME280;36153;50.960;6.220;2023-03-18T08:15:17;100076.81;;;18.21;49.39
50268;BME280;36153;50.960;6.220;2023-03-18T08:18:18;100079.38;;;18.24;49.31
50268;BME280;36153;50.960;6.220;2023-03-18T08:21:19;100084.03;;;18.14;49.22
50268;BME280;36153;50.960;6.220;2023-03-18T08:24:19;100078.44;;;18.27;48.95
50268;BME280;36153;50.960;6.220;2023-03-18T08:27:19;100078.34;;;18.30;48.67
50268;BME280;36153;50.960;6.220;2023-03-18T08:30:20;100073.53;;;18.46;48.39
50268;BME280;36153;50.960;6.220;2023-03-18T08:33:25;100084.38;;;18.65;48.20
50268;BME280;36153;50.960;6.220;2023-03-18T08:36:26;100084.94;;;18.76;48.01
50268;BME280;36153;50.960;6.220;2023-03-18T08:39:27;100087.00;;;18.98;47.86
50268;BME280;36153;50.960;6.220;2023-03-18T08:42:28;100089.75;;;18.62;48.08
50268;BME280;36153;50.960;6.220;2023-03-18T08:45:28;100103.78;;;18.64;48.61
50268;BME280;36153;50.960;6.220;2023-03-18T08:48:29;100094.78;;;18.71;47.53
50268;BME280;36153;50.960;6.220;2023-03-18T08:51:30;100089.44;;;19.04;47.40
50268;BME280;36153;50.960;6.220;2023-03-18T08:54:31;100093.28;;;19.22;47.26
50268;BME280;36153;50.960;6.220;2023-03-18T08:57:32;100091.16;;;19.61;46.24
50268;BME280;36153;50.960;6.220;2023-03-18T09:00:37;100096.56;;;19.58;46.08
50268;BME280;36153;50.960;6.220;2023-03-18T09:03:38;100094.44;;;19.41;46.51
50268;BME280;36153;50.960;6.220;2023-03-18T09:06:38;100093.25;;;19.52;46.50
50268;BME280;36153;50.960;6.220;2023-03-18T09:09:39;100085.28;;;19.53;46.65
50268;BME280;36153;50.960;6.220;2023-03-18T09:12:40;100091.97;;;19.64;46.58
50268;BME280;36153;50.960;6.220;2023-03-18T09:15:41;100088.94;;;19.76;46.13
50268;BME280;36153;50.960;6.220;2023-03-18T09:18:42;100087.81;;;19.85;45.84
50268;BME280;36153;50.960;6.220;2023-03-18T09:21:42;100098.47;;;20.08;45.12
50268;BME280;36153;50.960;6.220;2023-03-18T09:24:46;100093.91;;;20.12;44.84
50268;BME280;36153;50.960;6.220;2023-03-18T09:27:47;100091.22;;;20.39;44.64
50268;BME280;36153;50.960;6.220;2023-03-18T09:30:48;100096.13;;;20.24;44.24
50268;BME280;36153;50.960;6.220;2023-03-18T09:33:49;100088.94;;;20.53;44.28
50268;BME280;36153;50.960;6.220;2023-03-18T09:36:49;100082.56;;;20.59;43.95
50268;BME280;36153;50.960;6.220;2023-03-18T09:39:50;100085.53;;;20.98;43.74
50268;BME280;36153;50.960;6.220;2023-03-18T09:43:00;100096.28;;;20.94;43.16
50268;BME280;36153;50.960;6.220;2023-03-18T09:46:20;100099.16;;;20.62;44.17
50268;BME280;36153;50.960;6.220;2023-03-18T09:56:29;100093.75;;;21.14;42.85
50268;BME280;36153;50.960;6.220;2023-03-18T09:59:40;100089.09;;;21.21;42.75
50268;BME280;36153;50.960;6.220;2023-03-18T10:09:47;100084.50;;;20.79;42.57
50268;BME280;36153;50.960;6.220;2023-03-18T10:12:51;100086.81;;;20.88;40.70
50268;BME280;36153;50.960;6.220;2023-03-18T10:15:56;100086.53;;;21.18;40.95
50268;BME280;36153;50.960;6.220;2023-03-18T10:18:59;100080.56;;;21.13;41.75
50268;BME280;36153;50.960;6.220;2023-03-18T10:22:09;100079.00;;;21.75;39.43
50268;BME280;36153;50.960;6.220;2023-03-18T10:25:25;100082.69;;;21.71;40.38
50268;BME280;36153;50.960;6.220;2023-03-18T10:28:53;100080.94;;;21.92;39.85
50268;BME280;36153;50.960;6.220;2023-03-18T10:35:39;100086.25;;;22.13;38.84
50268;BME280;36153;50.960;6.220;2023-03-18T10:38:46;100085.00;;;22.61;38.78
50268;BME280;36153;50.960;6.220;2023-03-18T10:41:49;100094.38;;;22.89;38.38
50268;BME280;36153;50.960;6.220;2023-03-18T10:44:50;100089.91;;;23.09;37.99
50268;BME280;36153;50.960;6.220;2023-03-18T10:48:14;100096.59;;;22.98;36.88
50268;BME280;36153;50.960;6.220;2023-03-18T10:51:38;100096.75;;;22.95;35.47
50268;BME280;36153;50.960;6.220;2023-03-18T10:54:44;100103.19;;;23.09;35.93
50268;BME280;36153;50.960;6.220;2023-03-18T10:57:49;100108.78;;;22.83;36.63
50268;BME280;36153;50.960;6.220;2023-03-18T11:00:50;100104.00;;;22.52;36.83
50268;BME280;36153;50.960;6.220;2023-03-18T11:04:01;100094.31;;;22.30;36.94
50268;BME280;36153;50.960;6.220;2023-03-18T11:07:07;100091.78;;;22.07;38.19
50268;BME280;36153;50.960;6.220;2023-03-18T11:10:17;100091.75;;;22.49;37.86
50268;BME280;36153;50.960;6.220;2023-03-18T11:13:22;100092.06;;;23.00;36.67
50268;BME280;36153;50.960;6.220;2023-03-18T11:16:45;100090.72;;;22.92;35.90
50268;BME280;36153;50.960;6.220;2023-03-18T11:23:04;100085.06;;;22.99;37.02
50268;BME280;36153;50.960;6.220;2023-03-18T11:26:27;100084.41;;;23.32;36.66
50268;BME280;36153;50.960;6.220;2023-03-18T11:29:33;100075.22;;;23.40;36.45
50268;BME280;36153;50.960;6.220;2023-03-18T11:32:33;100081.84;;;23.67;36.45
50268;BME280;36153;50.960;6.220;2023-03-18T11:35:58;100078.59;;;24.15;35.71
50268;BME280;36153;50.960;6.220;2023-03-18T11:39:08;100070.16;;;24.07;34.50
50268;BME280;36153;50.960;6.220;2023-03-18T11:42:18;100086.56;;;23.97;34.68
50268;BME280;36153;50.960;6.220;2023-03-18T11:45:40;100083.66;;;24.02;34.71
50268;BME280;36153;50.960;6.220;2023-03-18T11:48:42;100077.88;;;24.29;34.77
50268;BME280;36153;50.960;6.220;2023-03-18T11:55:34;100075.75;;;24.00;34.54
50268;BME280;36153;50.960;6.220;2023-03-18T11:59:07;100074.38;;;23.74;35.11
50268;BME280;36153;50.960;6.220;2023-03-18T12:12:23;100070.44;;;22.51;36.80
50268;BME280;36153;50.960;6.220;2023-03-18T12:15:42;100067.59;;;22.56;36.93
50268;BME280;36153;50.960;6.220;2023-03-18T12:48:03;100091.97;;;21.37;41.88
50268;BME280;36153;50.960;6.220;2023-03-18T12:51:18;100089.44;;;21.12;42.72
50268;BME280;36153;50.960;6.220;2023-03-18T12:54:25;100094.09;;;20.82;43.44
50268;BME280;36153;50.960;6.220;2023-03-18T12:57:43;100094.19;;;20.55;44.28
50268;BME280;36153;50.960;6.220;2023-03-18T13:00:55;100094.56;;;20.19;45.56
50268;BME280;36153;50.960;6.220;2023-03-18T13:04:02;100093.19;;;20.07;46.04
50268;BME280;36153;50.960;6.220;2023-03-18T13:07:11;100090.19;;;20.18;45.82
50268;BME280;36153;50.960;6.220;2023-03-18T13:10:21;100083.25;;;20.40;46.02
50268;BME280;36153;50.960;6.220;2023-03-18T13:33:07;100074.97;;;22.08;43.84
50268;BME280;36153;50.960;6.220;2023-03-18T13:36:15;100067.53;;;23.33;41.77
50268;BME280;36153;50.960;6.220;2023-03-18T13:39:33;100064.66;;;24.10;41.00
50268;BME280;36153;50.960;6.220;2023-03-18T13:42:38;100058.25;;;23.96;39.81
50268;BME280;36153;50.960;6.220;2023-03-18T13:45:43;100054.63;;;23.62;39.82
50268;BME280;36153;50.960;6.220;2023-03-18T13:48:45;100049.22;;;23.64;39.01
50268;BME280;36153;50.960;6.220;2023-03-18T13:51:59;100045.91;;;23.95;37.46
50268;BME280;36153;50.960;6.220;2023-03-18T13:55:04;100039.34;;;24.02;37.47
50268;BME280;36153;50.960;6.220;2023-03-18T13:58:25;100046.13;;;23.91;36.84
50268;BME280;36153;50.960;6.220;2023-03-18T14:04:50;100042.94;;;24.35;37.90
50268;BME280;36153;50.960;6.220;2023-03-18T14:07:54;100040.19;;;23.85;37.39
50268;BME280;36153;50.960;6.220;2023-03-18T14:17:51;100023.97;;;23.38;36.90
50268;BME280;36153;50.960;6.220;2023-03-18T14:20:59;100021.28;;;22.82;37.75
50268;BME280;36153;50.960;6.220;2023-03-18T14:24:04;100014.97;;;23.04;36.53
50268;BME280;36153;50.960;6.220;2023-03-18T14:27:17;100013.88;;;23.08;36.03
50268;BME280;36153;50.960;6.220;2023-03-18T14:33:30;100007.59;;;22.91;36.53
50268;BME280;36153;50.960;6.220;2023-03-18T14:39:48;99995.59;;;23.21;35.26
50268;BME280;36153;50.960;6.220;2023-03-18T14:42:59;100007.66;;;23.63;35.63
50268;BME280;36153;50.960;6.220;2023-03-18T14:46:03;100006.94;;;23.77;35.94
50268;BME280;36153;50.960;6.220;2023-03-18T14:49:31;100003.22;;;23.63;35.71
50268;BME280;36153;50.960;6.220;2023-03-18T14:52:36;100000.72;;;23.05;35.32
50268;BME280;36153;50.960;6.220;2023-03-18T14:55:38;100011.59;;;23.19;36.10
50268;BME280;36153;50.960;6.220;2023-03-18T14:58:38;100008.00;;;23.01;35.35
50268;BME280;36153;50.960;6.220;2023-03-18T15:01:40;100000.72;;;23.05;35.89
50268;BME280;36153;50.960;6.220;2023-03-18T15:04:51;99999.28;;;23.88;35.00
50268;BME280;36153;50.960;6.220;2023-03-18T15:07:53;100004.81;;;24.18;34.49
50268;BME280;36153;50.960;6.220;2023-03-18T15:10:57;100004.25;;;24.12;34.13
50268;BME280;36153;50.960;6.220;2023-03-18T15:13:58;99999.91;;;24.44;34.11
50268;BME280;36153;50.960;6.220;2023-03-18T15:17:03;99993.03;;;24.56;34.00
50268;BME280;36153;50.960;6.220;2023-03-18T15:20:11;100000.31;;;24.03;33.47
50268;BME280;36153;50.960;6.220;2023-03-18T15:23:12;99990.06;;;23.43;34.61
50268;BME280;36153;50.960;6.220;2023-03-18T15:26:25;99997.66;;;23.85;34.03
50268;BME280;36153;50.960;6.220;2023-03-18T15:29:30;99999.41;;;23.32;34.15
50268;BME280;36153;50.960;6.220;2023-03-18T15:32:46;100009.22;;;23.67;33.34
50268;BME280;36153;50.960;6.220;2023-03-18T15:35:59;99996.91;;;23.12;34.40
50268;BME280;36153;50.960;6.220;2023-03-18T15:39:17;99998.31;;;22.81;35.30
50268;BME280;36153;50.960;6.220;2023-03-18T15:42:18;100006.94;;;22.48;36.57
50268;BME280;36153;50.960;6.220;2023-03-18T15:45:21;100005.94;;;21.90;36.92
50268;BME280;36153;50.960;6.220;2023-03-18T15:48:32;100018.13;;;21.53;37.23
50268;BME280;36153;50.960;6.220;2023-03-18T15:51:41;100014.06;;;21.65;37.34
50268;BME280;36153;50.960;6.220;2023-03-18T15:54:42;100006.06;;;22.08;36.26
50268;BME280;36153;50.960;6.220;2023-03-18T15:57:43;100012.69;;;21.77;37.70
50268;BME280;36153;50.960;6.220;2023-03-18T16:00:44;100015.06;;;22.24;37.29
50268;BME280;36153;50.960;6.220;2023-03-18T16:03:44;100007.09;;;22.64;36.68
50268;BME280;36153;50.960;6.220;2023-03-18T16:06:45;100012.16;;;23.07;35.94
50268;BME280;36153;50.960;6.220;2023-03-18T16:09:47;99998.47;;;23.16;35.24
50268;BME280;36153;50.960;6.220;2023-03-18T16:12:59;100002.03;;;23.34;35.06
50268;BME280;36153;50.960;6.220;2023-03-18T16:16:00;99997.56;;;23.34;34.74
50268;BME280;36153;50.960;6.220;2023-03-18T16:19:02;100005.75;;;23.30;35.39
50268;BME280;36153;50.960;6.220;2023-03-18T16:22:05;99999.72;;;22.71;35.76
50268;BME280;36153;50.960;6.220;2023-03-18T16:25:06;100002.34;;;22.31;35.86
50268;BME280;36153;50.960;6.220;2023-03-18T16:28:15;100003.25;;;22.31;35.93
50268;BME280;36153;50.960;6.220;2023-03-18T16:31:16;99993.81;;;22.05;36.28
50268;BME280;36153;50.960;6.220;2023-03-18T16:34:17;99999.72;;;21.91;36.14
50268;BME280;36153;50.960;6.220;2023-03-18T16:37:24;100007.66;;;21.91;36.13
50268;BME280;36153;50.960;6.220;2023-03-18T16:40:28;100009.50;;;21.89;36.09
50268;BME280;36153;50.960;6.220;2023-03-18T16:43:30;100010.50;;;21.87;36.58
50268;BME280;36153;50.960;6.220;2023-03-18T16:46:31;100020.03;;;21.48;37.09
50268;BME280;36153;50.960;6.220;2023-03-18T16:49:33;100027.75;;;21.32;37.82
50268;BME280;36153;50.960;6.220;2023-03-18T16:52:35;100022.84;;;21.45;37.27
50268;BME280;36153;50.960;6.220;2023-03-18T16:55:36;100024.59;;;21.22;37.57
50268;BME280;36153;50.960;6.220;2023-03-18T16:58:37;100023.13;;;21.37;37.22
50268;BME280;36153;50.960;6.220;2023-03-18T17:01:37;100020.44;;;22.02;36.38
50268;BME280;36153;50.960;6.220;2023-03-18T17:04:39;100020.91;;;21.91;36.41
50268;BME280;36153;50.960;6.220;2023-03-18T17:07:39;100022.00;;;21.43;36.85
50268;BME280;36153;50.960;6.220;2023-03-18T17:10:39;100030.03;;;21.41;37.31
50268;BME280;36153;50.960;6.220;2023-03-18T17:13:41;100018.78;;;20.92;38.08
50268;BME280;36153;50.960;6.220;2023-03-18T17:16:41;100019.28;;;20.31;39.19
50268;BME280;36153;50.960;6.220;2023-03-18T17:19:42;100028.56;;;19.92;40.24
50268;BME280;36153;50.960;6.220;2023-03-18T17:22:43;100034.31;;;19.51;41.19
50268;BME280;36153;50.960;6.220;2023-03-18T17:25:47;100030.72;;;19.25;42.02
50268;BME280;36153;50.960;6.220;2023-03-18T17:28:49;100034.13;;;19.01;42.54
50268;BME280;36153;50.960;6.220;2023-03-18T17:31:50;100038.16;;;18.83;42.60
50268;BME280;36153;50.960;6.220;2023-03-18T17:34:52;100042.16;;;18.68;43.00
50268;BME280;36153;50.960;6.220;2023-03-18T17:37:53;100042.56;;;18.52;43.41
50268;BME280;36153;50.960;6.220;2023-03-18T17:40:53;100039.81;;;18.25;44.19
50268;BME280;36153;50.960;6.220;2023-03-18T17:43:54;100045.69;;;18.04;44.57
50268;BME280;36153;50.960;6.220;2023-03-18T17:46:55;100047.47;;;18.02;44.47
50268;BME280;36153;50.960;6.220;2023-03-18T17:49:56;100053.72;;;17.98;44.36
50268;BME280;36153;50.960;6.220;2023-03-18T17:52:56;100054.13;;;17.81;44.71
50268;BME280;36153;50.960;6.220;2023-03-18T17:55:57;100058.81;;;17.69;44.96
50268;BME280;36153;50.960;6.220;2023-03-18T17:58:58;100052.75;;;17.66;45.00
50268;BME280;36153;50.960;6.220;2023-03-18T18:01:58;100051.84;;;17.67;45.46
50268;BME280;36153;50.960;6.220;2023-03-18T18:04:58;100061.56;;;17.63;45.58